Time;durP1;ratioP1;P1;durP2;ratioP2;P2;SDS_P1;SDS_P2;PMS_P1;PMS_P2;Temp;Humidity;BMP_temperature;BMP_pressure;BME280_temperature;BME280_humidity;BME280_pressure;Samples;Min_cycle;Max_cycle;Signal;HPM_P1;HPM_P2
2022/10/06 00:00:19;;;;;;;;;;;;;;;;;;1043458;28;1925;-57
2022/10/06 00:01:17;;;;;;;;;;;;;;;;;;1047710;28;3034;-57
2022/10/06 00:01:48;;;;;;;;;;;;;;;;;;1048254;28;2532;-57
2022/10/06 00:02:18;;;;;;;;;;;;;;;;;;1048710;28;2250;-57
2022/10/06 00:02:49;;;;;;;;;;;;;;;;;;1050309;28;1953;-57
2022/10/06 00:03:22;;;;;;;;;;;;;;;;;;1051926;28;1694;-57
2022/10/06 00:03:53;;;;;;;;;;;;;;;;;;1052786;28;1967;-57
2022/10/06 00:04:23;;;;;;;;;;;;;;;;;;1054389;28;1721;-57
2022/10/06 00:04:53;;;;;;;;;;;;;;;;;;1051632;28;2356;-57
2022/10/06 00:05:24;;;;;;;;;;;;;;;;;;1045526;28;2553;-57
2022/10/06 00:05:57;;;;;;;;;;;;;;;;;;1044829;28;3007;-56
2022/10/06 00:06:27;;;;;;;;;;;;;;;;;;1046008;28;2197;-56
2022/10/06 00:06:58;;;;;;;;;;;;;;;;;;1044966;28;2575;-57
2022/10/06 00:07:28;;;;;;;;;;;;;;;;;;1053260;28;2741;-57
2022/10/06 00:07:59;;;;;;;;;;;;;;;;;;1047644;28;2138;-56
2022/10/06 00:08:30;;;;;;;;;;;;;;;;;;1050843;28;2000;-56
2022/10/06 00:09:00;;;;;;;;;;;;;;;;;;1050343;28;2130;-57
2022/10/06 00:09:31;;;;;;;;;;;;;;;;;;1050127;28;2207;-58
2022/10/06 00:10:01;;;;;;;;;;;;;;;;;;1054552;28;1822;-57
2022/10/06 00:10:32;;;;;;;;;;;;;;;;;;1045798;28;2246;-58
2022/10/06 00:11:03;;;;;;;;;;;;;;;;;;1045936;28;2475;-55
2022/10/06 00:11:34;;;;;;;;;;;;;;;;;;1041924;28;2107;-57
2022/10/06 00:12:05;;;;;;;;;;;;;;;;;;1038584;28;2402;-56
2022/10/06 00:12:40;;;;;;;;;;;;;;;;;;1043727;28;2179;-52
2022/10/06 00:13:10;;;;;;;;;;;;;;;;;;1043912;28;2357;-57
2022/10/06 00:13:40;;;;;;;;;;;;;;;;;;1051416;28;2124;-55
2022/10/06 00:14:11;;;;;;;;;;;;;;;;;;1053937;28;2458;-57
2022/10/06 00:14:41;;;;;;;;;;;;;;;;;;1048430;28;2321;-56
2022/10/06 00:15:12;;;;;;;;;;;;;;;;;;1044285;28;2110;-57
2022/10/06 00:15:43;;;;;;;;;;;;;;;;;;1043423;28;1986;-58
2022/10/06 00:16:16;;;;;;;;;;;;;;;;;;1042641;28;1616;-57
2022/10/06 00:16:46;;;;;;;;;;;;;;;;;;1045975;28;2140;-57
2022/10/06 00:17:17;;;;;;;;;;;;;;;;;;1043125;28;1985;-56
2022/10/06 00:17:47;;;;;;;;;;;;;;;;;;1043393;28;1863;-56
2022/10/06 00:18:18;;;;;;;;;;;;;;;;;;1037109;28;1695;-57
2022/10/06 00:18:48;;;;;;;;;;;;;;;;;;1044470;28;2073;-57
2022/10/06 00:19:18;;;;;;;;;;;;;;;;;;1044569;28;2108;-55
2022/10/06 00:19:49;;;;;;;;;;;;;;;;;;1046405;28;2108;-56
2022/10/06 00:20:19;;;;;;;;;;;;;;;;;;1050863;28;2060;-58
2022/10/06 00:20:53;;;;;;;;;;;;;;;;;;1051992;28;2189;-57
2022/10/06 00:21:23;;;;;;;;;;;;;;;;;;1054807;28;2088;-56
2022/10/06 00:22:07;;;;;;;;;;;;;;;;;;1054695;28;1792;-55
2022/10/06 00:22:46;;;;;;;;;;;;;;;;;;1054696;28;1836;-57
2022/10/06 00:23:16;;;;;;;;;;;;;;;;;;1055146;28;1936;-58
2022/10/06 00:23:47;;;;;;;;;;;;;;;;;;1053222;28;2015;-58
2022/10/06 00:24:18;;;;;;;;;;;;;;;;;;1047813;28;2246;-56
2022/10/06 00:24:48;;;;;;;;;;;;;;;;;;1048296;28;1821;-57
2022/10/06 00:25:20;;;;;;;;;;;;;;;;;;1048966;28;1965;-56
2022/10/06 00:25:50;;;;;;;;;;;;;;;;;;1048320;28;1969;-57
2022/10/06 00:26:22;;;;;;;;;;;;;;;;;;1050305;28;2033;-57
2022/10/06 00:26:53;;;;;;;;;;;;;;;;;;1042521;28;2022;-57
2022/10/06 00:27:24;;;;;;;;;;;;;;;;;;1040022;28;2083;-56
2022/10/06 00:27:54;;;;;;;;;;;;;;;;;;1040795;28;1994;-57
2022/10/06 00:28:25;;;;;;;;;;;;;;;;;;1046997;28;2103;-55
2022/10/06 00:28:55;;;;;;;;;;;;;;;;;;1048385;28;2130;-56
2022/10/06 00:29:26;;;;;;;;;;;;;;;;;;1047106;28;2015;-57
2022/10/06 00:29:57;;;;;;;;;;;;;;;;;;1043010;28;1742;-57
2022/10/06 00:30:30;;;;;;;;;;;;;;;;;;1042974;28;1451;-57
2022/10/06 00:31:01;;;;;;;;;;;;;;;;;;1040141;28;2099;-57
2022/10/06 00:31:33;;;;;;;;;;;;;;;;;;1044643;28;2086;-57
2022/10/06 00:32:04;;;;;;;;;;;;;;;;;;1040868;28;2076;-56
2022/10/06 00:32:35;;;;;;;;;;;;;;;;;;1039566;28;1983;-58
2022/10/06 00:33:10;;;;;;;;;;;;;;;;;;1040783;28;1949;-56
2022/10/06 00:33:41;;;;;;;;;;;;;;;;;;1040662;28;2506;-57
2022/10/06 00:34:13;;;;;;;;;;;;;;;;;;1036937;28;3059;-56
2022/10/06 00:34:44;;;;;;;;;;;;;;;;;;1040658;28;1647;-55
2022/10/06 00:35:14;;;;;;;;;;;;;;;;;;1045778;28;2073;-57
2022/10/06 00:35:45;;;;;;;;;;;;;;;;;;1043603;28;2072;-56
2022/10/06 00:36:15;;;;;;;;;;;;;;;;;;1049086;28;2163;-57
2022/10/06 00:36:46;;;;;;;;;;;;;;;;;;1051649;28;1875;-55
2022/10/06 00:37:17;;;;;;;;;;;;;;;;;;1053928;28;1933;-56
2022/10/06 00:37:47;;;;;;;;;;;;;;;;;;1051050;28;2388;-57
2022/10/06 00:38:17;;;;;;;;;;;;;;;;;;1049004;28;1876;-57
2022/10/06 00:38:51;;;;;;;;;;;;;;;;;;1049795;28;1974;-57
2022/10/06 00:39:21;;;;;;;;;;;;;;;;;;1051752;28;2033;-54
2022/10/06 00:39:51;;;;;;;;;;;;;;;;;;1051743;28;1981;-56
2022/10/06 00:40:21;;;;;;;;;;;;;;;;;;1053839;28;1983;-56
2022/10/06 00:40:52;;;;;;;;;;;;;;;;;;1054257;28;2336;-57
2022/10/06 00:41:25;;;;;;;;;;;;;;;;;;1051498;28;2529;-57
2022/10/06 00:41:56;;;;;;;;;;;;;;;;;;1047358;28;2083;-57
2022/10/06 00:42:31;;;;;;;;;;;;;;;;;;1046695;28;2014;-56
2022/10/06 00:43:03;;;;;;;;;;;;;;;;;;1044720;28;1647;-56
2022/10/06 00:43:39;;;;;;;;;;;;;;;;;;1044682;28;2550;-57
2022/10/06 00:44:10;;;;;;;;;;;;;;;;;;1048044;28;2534;-57
2022/10/06 00:44:40;;;;;;;;;;;;;;;;;;1051324;28;2075;-56
2022/10/06 00:45:10;;;;;;;;;;;;;;;;;;1052309;28;1683;-56
2022/10/06 00:45:43;;;;;;;;;;;;;;;;;;1053274;28;2070;-57
2022/10/06 00:46:13;;;;;;;;;;;;;;;;;;1049576;28;1994;-57
2022/10/06 00:46:46;;;;;;;;;;;;;;;;;;1048852;28;2036;-58
2022/10/06 00:47:18;;;;;;;;;;;;;;;;;;1042817;28;1990;-56
2022/10/06 00:47:49;;;;;;;;;;;;;;;;;;1039412;28;2097;-57
2022/10/06 00:48:22;;;;;;;;;;;;;;;;;;1040666;28;2352;-57
2022/10/06 00:49:02;;;;;;;;;;;;;;;;;;1043082;28;2021;-57
2022/10/06 00:49:36;;;;;;;;;;;;;;;;;;1049042;28;1862;-56
2022/10/06 00:50:08;;;;;;;;;;;;;;;;;;1053372;28;1860;-55
2022/10/06 00:50:38;;;;;;;;;;;;;;;;;;1052202;28;1709;-55
2022/10/06 00:51:09;;;;;;;;;;;;;;;;;;1053703;28;2083;-55
2022/10/06 00:51:43;;;;;;;;;;;;;;;;;;1053806;28;2188;-58
2022/10/06 00:52:14;;;;;;;;;;;;;;;;;;1047934;28;2138;-57
2022/10/06 00:52:45;;;;;;;;;;;;;;;;;;1050934;28;2486;-54
2022/10/06 00:53:16;;;;;;;;;;;;;;;;;;1050193;28;1858;-56
2022/10/06 00:53:47;;;;;;;;;;;;;;;;;;1047681;28;1625;-57
2022/10/06 00:54:18;;;;;;;;;;;;;;;;;;1047626;28;1699;-56
2022/10/06 00:54:49;;;;;;;;;;;;;;;;;;1043243;28;1813;-57
2022/10/06 00:55:21;;;;;;;;;;;;;;;;;;1043446;28;1947;-56
2022/10/06 00:55:53;;;;;;;;;;;;;;;;;;1039621;28;2095;-57
2022/10/06 00:56:25;;;;;;;;;;;;;;;;;;1035710;28;2200;-57
2022/10/06 00:56:56;;;;;;;;;;;;;;;;;;1039151;28;2128;-56
2022/10/06 00:57:26;;;;;;;;;;;;;;;;;;1040389;28;3097;-57
2022/10/06 00:57:58;;;;;;;;;;;;;;;;;;1041165;28;2734;-57
2022/10/06 00:58:28;;;;;;;;;;;;;;;;;;1046977;28;2600;-57
2022/10/06 00:58:58;;;;;;;;;;;;;;;;;;1055368;28;2507;-56
2022/10/06 00:59:29;;;;;;;;;;;;;;;;;;1056077;28;2657;-56
2022/10/06 01:00:00;;;;;;;;;;;;;;;;;;1056434;28;1963;-57
2022/10/06 01:00:30;;;;;;;;;;;;;;;;;;1051357;28;1741;-58
2022/10/06 01:01:10;;;;;;;;;;;;;;;;;;1050846;28;2184;-57
2022/10/06 01:01:41;;;;;;;;;;;;;;;;;;1047581;28;1868;-55
2022/10/06 01:02:15;;;;;;;;;;;;;;;;;;1053248;28;2632;-55
2022/10/06 01:02:55;;;;;;;;;;;;;;;;;;1055450;28;1708;-56
2022/10/06 01:03:32;;;;;;;;;;;;;;;;;;1055927;28;1802;-56
2022/10/06 01:04:06;;;;;;;;;;;;;;;;;;1054598;28;1674;-57
2022/10/06 01:04:39;;;;;;;;;;;;;;;;;;1056233;28;2003;-57
2022/10/06 01:05:14;;;;;;;;;;;;;;;;;;1054391;28;2092;-57
2022/10/06 01:05:48;;;;;;;;;;;;;;;;;;1047356;28;1809;-56
2022/10/06 01:06:18;;;;;;;;;;;;;;;;;;1047502;28;1716;-57
2022/10/06 01:06:54;;;;;;;;;;;;;;;;;;1046109;28;1698;-56
2022/10/06 01:07:26;;;;;;;;;;;;;;;;;;1045882;28;2002;-56
2022/10/06 01:07:57;;;;;;;;;;;;;;;;;;1042694;28;2504;-56
2022/10/06 01:08:28;;;;;;;;;;;;;;;;;;1042878;28;1934;-57
2022/10/06 01:08:58;;;;;;;;;;;;;;;;;;1043347;28;1748;-56
2022/10/06 01:09:29;;;;;;;;;;;;;;;;;;1048060;28;2164;-56
2022/10/06 01:09:59;;;;;;;;;;;;;;;;;;1053961;28;2067;-56
2022/10/06 01:10:30;;;;;;;;;;;;;;;;;;1051185;28;1853;-54
2022/10/06 01:11:01;;;;;;;;;;;;;;;;;;1043459;28;1975;-54
2022/10/06 01:11:36;;;;;;;;;;;;;;;;;;1043994;28;2766;-56
2022/10/06 01:12:07;;;;;;;;;;;;;;;;;;1043814;28;1406;-56
2022/10/06 01:12:37;;;;;;;;;;;;;;;;;;1045001;28;1841;-56
2022/10/06 01:13:09;;;;;;;;;;;;;;;;;;1051759;28;2049;-57
2022/10/06 01:13:43;;;;;;;;;;;;;;;;;;1048773;28;2537;-56
2022/10/06 01:14:14;;;;;;;;;;;;;;;;;;1052331;28;1311;-56
2022/10/06 01:14:45;;;;;;;;;;;;;;;;;;1056638;28;1842;-56
2022/10/06 01:15:15;;;;;;;;;;;;;;;;;;1055811;28;1826;-59
2022/10/06 01:16:02;;;;;;;;;;;;;;;;;;1055969;28;1682;-57
2022/10/06 01:16:34;;;;;;;;;;;;;;;;;;1054395;28;1727;-55
2022/10/06 01:17:08;;;;;;;;;;;;;;;;;;1052183;28;1069;-56
2022/10/06 01:17:41;;;;;;;;;;;;;;;;;;1052169;28;1916;-56
2022/10/06 01:18:13;;;;;;;;;;;;;;;;;;1054064;28;1590;-56
2022/10/06 01:18:45;;;;;;;;;;;;;;;;;;1053079;28;1828;-55
2022/10/06 01:19:24;;;;;;;;;;;;;;;;;;1056369;28;1607;-56
2022/10/06 01:19:59;;;;;;;;;;;;;;;;;;1054693;28;2454;-59
2022/10/06 01:20:31;;;;;;;;;;;;;;;;;;1046432;28;1934;-56
2022/10/06 01:21:08;;;;;;;;;;;;;;;;;;1043805;28;1586;-57
2022/10/06 01:21:52;;;;;;;;;;;;;;;;;;1042856;28;2050;-56
2022/10/06 01:22:34;;;;;;;;;;;;;;;;;;1048040;28;1841;-57
2022/10/06 01:23:05;;;;;;;;;;;;;;;;;;1050111;28;2323;-56
2022/10/06 01:23:36;;;;;;;;;;;;;;;;;;1048243;28;1623;-57
2022/10/06 01:24:08;;;;;;;;;;;;;;;;;;1045601;28;2014;-56
2022/10/06 01:24:44;;;;;;;;;;;;;;;;;;1036318;28;2074;-56
2022/10/06 01:25:15;;;;;;;;;;;;;;;;;;1039482;28;2162;-59
2022/10/06 01:25:46;;;;;;;;;;;;;;;;;;1041397;28;1723;-55
2022/10/06 01:26:19;;;;;;;;;;;;;;;;;;1042409;28;2094;-57
2022/10/06 01:26:50;;;;;;;;;;;;;;;;;;1051524;28;1947;-56
2022/10/06 01:27:22;;;;;;;;;;;;;;;;;;1050105;28;2563;-55
2022/10/06 01:27:53;;;;;;;;;;;;;;;;;;1051642;28;1716;-56
2022/10/06 01:28:27;;;;;;;;;;;;;;;;;;1050024;28;2534;-56
2022/10/06 01:28:57;;;;;;;;;;;;;;;;;;1047146;28;1657;-57
2022/10/06 01:29:30;;;;;;;;;;;;;;;;;;1050050;28;2110;-57
2022/10/06 01:30:00;;;;;;;;;;;;;;;;;;1048710;28;1621;-57
2022/10/06 01:30:34;;;;;;;;;;;;;;;;;;1047672;28;2159;-55
2022/10/06 01:31:06;;;;;;;;;;;;;;;;;;1048293;28;1575;-58
2022/10/06 01:31:37;;;;;;;;;;;;;;;;;;1048087;28;2518;-57
2022/10/06 01:32:08;;;;;;;;;;;;;;;;;;1049065;28;2034;-56
2022/10/06 01:32:39;;;;;;;;;;;;;;;;;;1047333;28;2034;-57
2022/10/06 01:33:10;;;;;;;;;;;;;;;;;;1043398;28;1988;-56
2022/10/06 01:33:41;;;;;;;;;;;;;;;;;;1044159;28;2135;-57
2022/10/06 01:34:11;;;;;;;;;;;;;;;;;;1044475;28;1771;-56
2022/10/06 01:34:41;;;;;;;;;;;;;;;;;;1047231;28;2144;-57
2022/10/06 01:35:12;;;;;;;;;;;;;;;;;;1047948;28;2625;-56
2022/10/06 01:35:45;;;;;;;;;;;;;;;;;;1049970;28;1975;-56
2022/10/06 01:36:15;;;;;;;;;;;;;;;;;;1052716;28;1749;-56
2022/10/06 01:36:46;;;;;;;;;;;;;;;;;;1051247;28;1966;-58
2022/10/06 01:37:16;;;;;;;;;;;;;;;;;;1050202;28;2653;-57
2022/10/06 01:37:46;;;;;;;;;;;;;;;;;;1048317;28;2413;-55
2022/10/06 01:38:17;;;;;;;;;;;;;;;;;;1048785;28;2201;-57
2022/10/06 01:38:47;;;;;;;;;;;;;;;;;;1049141;28;2081;-55
2022/10/06 01:39:18;;;;;;;;;;;;;;;;;;1048964;28;2065;-57
2022/10/06 01:39:48;;;;;;;;;;;;;;;;;;1048089;28;1736;-57
2022/10/06 01:40:24;;;;;;;;;;;;;;;;;;1047454;28;2385;-54
2022/10/06 01:40:54;;;;;;;;;;;;;;;;;;1048254;28;1639;-57
2022/10/06 01:41:26;;;;;;;;;;;;;;;;;;1048331;28;2373;-58
2022/10/06 01:41:57;;;;;;;;;;;;;;;;;;1049238;28;2653;-58
2022/10/06 01:42:30;;;;;;;;;;;;;;;;;;1053853;28;2051;-58
2022/10/06 01:43:00;;;;;;;;;;;;;;;;;;1055782;28;1406;-58
2022/10/06 01:43:31;;;;;;;;;;;;;;;;;;1054927;28;2029;-59
2022/10/06 01:44:02;;;;;;;;;;;;;;;;;;1050597;28;2583;-59
2022/10/06 01:44:32;;;;;;;;;;;;;;;;;;1041177;28;2500;-59
2022/10/06 01:45:03;;;;;;;;;;;;;;;;;;1043368;28;1756;-59
2022/10/06 01:45:33;;;;;;;;;;;;;;;;;;1041062;28;2542;-56
2022/10/06 01:46:04;;;;;;;;;;;;;;;;;;1047690;28;1479;-57
2022/10/06 01:46:34;;;;;;;;;;;;;;;;;;1050014;28;2036;-58
2022/10/06 01:47:05;;;;;;;;;;;;;;;;;;1047792;28;2131;-59
2022/10/06 01:47:37;;;;;;;;;;;;;;;;;;1040790;28;2073;-59
2022/10/06 01:48:08;;;;;;;;;;;;;;;;;;1038933;28;1683;-59
2022/10/06 01:48:38;;;;;;;;;;;;;;;;;;1039224;28;2239;-58
2022/10/06 01:49:08;;;;;;;;;;;;;;;;;;1039670;28;2016;-59
2022/10/06 01:49:39;;;;;;;;;;;;;;;;;;1047121;28;2430;-58
2022/10/06 01:50:09;;;;;;;;;;;;;;;;;;1051956;28;1609;-57
2022/10/06 01:50:41;;;;;;;;;;;;;;;;;;1051139;28;2007;-59
2022/10/06 01:51:13;;;;;;;;;;;;;;;;;;1046875;28;2054;-58
2022/10/06 01:51:45;;;;;;;;;;;;;;;;;;1042203;28;2143;-58
2022/10/06 01:52:21;;;;;;;;;;;;;;;;;;1042416;28;2449;-58
2022/10/06 01:52:51;;;;;;;;;;;;;;;;;;1044491;28;2034;-58
2022/10/06 01:53:22;;;;;;;;;;;;;;;;;;1051476;28;1435;-56
2022/10/06 01:53:52;;;;;;;;;;;;;;;;;;1051478;28;2082;-57
2022/10/06 01:54:24;;;;;;;;;;;;;;;;;;1049405;28;1987;-59
2022/10/06 01:54:55;;;;;;;;;;;;;;;;;;1047489;28;1630;-59
2022/10/06 01:55:25;;;;;;;;;;;;;;;;;;1045874;28;2722;-57
2022/10/06 01:55:58;;;;;;;;;;;;;;;;;;1043797;28;1410;-58
2022/10/06 01:56:29;;;;;;;;;;;;;;;;;;1043124;28;2209;-58
2022/10/06 01:57:00;;;;;;;;;;;;;;;;;;1043267;28;2104;-58
2022/10/06 01:57:30;;;;;;;;;;;;;;;;;;1042398;28;2442;-55
2022/10/06 01:58:00;;;;;;;;;;;;;;;;;;1048068;28;1435;-57
2022/10/06 01:58:30;;;;;;;;;;;;;;;;;;1047171;28;2696;-56
2022/10/06 01:59:01;;;;;;;;;;;;;;;;;;1048916;28;2084;-56
2022/10/06 01:59:32;;;;;;;;;;;;;;;;;;1047050;28;2095;-56
2022/10/06 02:00:04;;;;;;;;;;;;;;;;;;1047470;28;2046;-57
2022/10/06 02:00:34;;;;;;;;;;;;;;;;;;1044837;28;3038;-56
2022/10/06 02:01:06;;;;;;;;;;;;;;;;;;1045908;28;2057;-58
2022/10/06 02:01:36;;;;;;;;;;;;;;;;;;1048666;28;2102;-58
2022/10/06 02:02:06;;;;;;;;;;;;;;;;;;1049007;28;2060;-58
2022/10/06 02:02:37;;;;;;;;;;;;;;;;;;1049060;28;2126;-56
2022/10/06 02:03:07;;;;;;;;;;;;;;;;;;1048221;28;1571;-58
2022/10/06 02:03:38;;;;;;;;;;;;;;;;;;1047346;28;2186;-59
2022/10/06 02:04:09;;;;;;;;;;;;;;;;;;1044696;28;2173;-56
2022/10/06 02:04:39;;;;;;;;;;;;;;;;;;1043240;28;1611;-55
2022/10/06 02:05:10;;;;;;;;;;;;;;;;;;1050229;28;3175;-58
2022/10/06 02:05:41;;;;;;;;;;;;;;;;;;1049524;28;2029;-59
2022/10/06 02:06:11;;;;;;;;;;;;;;;;;;1049081;28;2110;-58
2022/10/06 02:06:42;;;;;;;;;;;;;;;;;;1048196;28;2254;-56
2022/10/06 02:07:13;;;;;;;;;;;;;;;;;;1049762;28;1713;-57
2022/10/06 02:07:43;;;;;;;;;;;;;;;;;;1049881;28;2005;-58
2022/10/06 02:08:13;;;;;;;;;;;;;;;;;;1048891;28;2323;-58
2022/10/06 02:08:45;;;;;;;;;;;;;;;;;;1050682;28;2293;-58
2022/10/06 02:09:15;;;;;;;;;;;;;;;;;;1048745;28;2235;-58
2022/10/06 02:09:46;;;;;;;;;;;;;;;;;;1047775;28;2088;-57
2022/10/06 02:10:18;;;;;;;;;;;;;;;;;;1047894;28;2199;-58
2022/10/06 02:10:49;;;;;;;;;;;;;;;;;;1050976;28;3039;-56
2022/10/06 02:11:19;;;;;;;;;;;;;;;;;;1048318;28;2194;-59
2022/10/06 02:11:50;;;;;;;;;;;;;;;;;;1052527;28;1700;-57
2022/10/06 02:12:20;;;;;;;;;;;;;;;;;;1049090;28;2530;-57
2022/10/06 02:12:51;;;;;;;;;;;;;;;;;;1048817;28;2212;-58
2022/10/06 02:13:26;;;;;;;;;;;;;;;;;;1048653;28;2239;-58
2022/10/06 02:13:59;;;;;;;;;;;;;;;;;;1048933;28;2472;-57
2022/10/06 02:14:31;;;;;;;;;;;;;;;;;;1049165;28;2411;-58
2022/10/06 02:15:02;;;;;;;;;;;;;;;;;;1050658;28;2039;-57
2022/10/06 02:15:33;;;;;;;;;;;;;;;;;;1050061;28;2117;-58
2022/10/06 02:16:07;;;;;;;;;;;;;;;;;;1049779;28;1789;-57
2022/10/06 02:16:38;;;;;;;;;;;;;;;;;;1050402;28;2137;-55
2022/10/06 02:17:08;;;;;;;;;;;;;;;;;;1050986;28;1993;-57
2022/10/06 02:17:39;;;;;;;;;;;;;;;;;;1045460;28;2452;-59
2022/10/06 02:18:09;;;;;;;;;;;;;;;;;;1049624;28;2249;-56
2022/10/06 02:18:39;;;;;;;;;;;;;;;;;;1050019;28;3387;-57
2022/10/06 02:19:10;;;;;;;;;;;;;;;;;;1048359;28;1930;-56
2022/10/06 02:19:42;;;;;;;;;;;;;;;;;;1050953;28;2069;-57
2022/10/06 02:20:14;;;;;;;;;;;;;;;;;;1044588;28;2109;-57
2022/10/06 02:20:44;;;;;;;;;;;;;;;;;;1041776;28;2019;-55
2022/10/06 02:21:19;;;;;;;;;;;;;;;;;;1041000;28;2470;-56
2022/10/06 02:22:02;;;;;;;;;;;;;;;;;;1044229;28;1931;-56
2022/10/06 02:22:40;;;;;;;;;;;;;;;;;;1048181;28;2108;-58
2022/10/06 02:23:10;;;;;;;;;;;;;;;;;;1047556;28;1976;-57
2022/10/06 02:23:41;;;;;;;;;;;;;;;;;;1047525;28;1345;-56
2022/10/06 02:24:11;;;;;;;;;;;;;;;;;;1048687;28;2757;-55
2022/10/06 02:24:41;;;;;;;;;;;;;;;;;;1047199;28;1854;-57
2022/10/06 02:25:11;;;;;;;;;;;;;;;;;;1048502;28;2459;-57
2022/10/06 02:25:42;;;;;;;;;;;;;;;;;;1049245;28;2151;-57
2022/10/06 02:26:12;;;;;;;;;;;;;;;;;;1050630;28;2451;-55
2022/10/06 02:26:43;;;;;;;;;;;;;;;;;;1047265;28;2463;-57
2022/10/06 02:27:14;;;;;;;;;;;;;;;;;;1050622;28;2010;-59
2022/10/06 02:27:46;;;;;;;;;;;;;;;;;;1046487;28;2412;-57
2022/10/06 02:28:17;;;;;;;;;;;;;;;;;;1049765;28;1724;-58
2022/10/06 02:28:50;;;;;;;;;;;;;;;;;;1045662;28;2048;-56
2022/10/06 02:29:24;;;;;;;;;;;;;;;;;;1047774;28;1764;-58
2022/10/06 02:29:54;;;;;;;;;;;;;;;;;;1049725;28;1973;-56
2022/10/06 02:30:25;;;;;;;;;;;;;;;;;;1047328;28;2177;-57
2022/10/06 02:31:03;;;;;;;;;;;;;;;;;;1040687;28;2113;-59
2022/10/06 02:31:33;;;;;;;;;;;;;;;;;;1042368;28;2505;-58
2022/10/06 02:32:04;;;;;;;;;;;;;;;;;;1040758;28;2110;-58
2022/10/06 02:32:36;;;;;;;;;;;;;;;;;;1044912;28;3381;-58
2022/10/06 02:33:13;;;;;;;;;;;;;;;;;;1049928;28;2403;-59
2022/10/06 02:33:43;;;;;;;;;;;;;;;;;;1052450;28;1970;-58
2022/10/06 02:34:14;;;;;;;;;;;;;;;;;;1047071;28;2191;-55
2022/10/06 02:34:44;;;;;;;;;;;;;;;;;;1051115;28;2198;-59
2022/10/06 02:35:14;;;;;;;;;;;;;;;;;;1048883;28;2087;-58
2022/10/06 02:35:45;;;;;;;;;;;;;;;;;;1048452;28;2122;-55
2022/10/06 02:36:16;;;;;;;;;;;;;;;;;;1048377;28;2108;-57
2022/10/06 02:36:46;;;;;;;;;;;;;;;;;;1049104;28;2605;-59
2022/10/06 02:37:17;;;;;;;;;;;;;;;;;;1049621;28;2479;-59
2022/10/06 02:37:48;;;;;;;;;;;;;;;;;;1048177;28;2056;-53
2022/10/06 02:38:18;;;;;;;;;;;;;;;;;;1044189;28;2104;-54
2022/10/06 02:38:49;;;;;;;;;;;;;;;;;;1043063;28;2021;-59
2022/10/06 02:39:20;;;;;;;;;;;;;;;;;;1044063;28;2005;-56
2022/10/06 02:39:51;;;;;;;;;;;;;;;;;;1043350;28;1490;-55
2022/10/06 02:40:21;;;;;;;;;;;;;;;;;;1048572;28;1949;-56
2022/10/06 02:40:52;;;;;;;;;;;;;;;;;;1042958;28;2019;-57
2022/10/06 02:41:23;;;;;;;;;;;;;;;;;;1043220;28;2011;-56
2022/10/06 02:41:53;;;;;;;;;;;;;;;;;;1044558;28;1642;-57
2022/10/06 02:42:24;;;;;;;;;;;;;;;;;;1044462;28;2114;-58
2022/10/06 02:42:54;;;;;;;;;;;;;;;;;;1048106;28;1765;-58
2022/10/06 02:43:30;;;;;;;;;;;;;;;;;;1050802;28;1754;-58
2022/10/06 02:44:00;;;;;;;;;;;;;;;;;;1047314;28;2544;-59
2022/10/06 02:44:31;;;;;;;;;;;;;;;;;;1048913;28;2462;-57
2022/10/06 02:45:03;;;;;;;;;;;;;;;;;;1050540;28;2206;-58
2022/10/06 02:45:34;;;;;;;;;;;;;;;;;;1048320;28;2469;-59
2022/10/06 02:46:07;;;;;;;;;;;;;;;;;;1048733;28;2478;-58
2022/10/06 02:46:37;;;;;;;;;;;;;;;;;;1043150;28;1804;-59
2022/10/06 02:47:11;;;;;;;;;;;;;;;;;;1041653;28;2233;-59
2022/10/06 02:47:41;;;;;;;;;;;;;;;;;;1045934;28;2063;-58
2022/10/06 02:48:11;;;;;;;;;;;;;;;;;;1045417;28;2613;-56
2022/10/06 02:48:42;;;;;;;;;;;;;;;;;;1048961;28;1828;-58
2022/10/06 02:49:12;;;;;;;;;;;;;;;;;;1049061;28;2173;-57
2022/10/06 02:49:43;;;;;;;;;;;;;;;;;;1049702;28;1901;-56
2022/10/06 02:50:14;;;;;;;;;;;;;;;;;;1047001;28;2122;-56
2022/10/06 02:50:44;;;;;;;;;;;;;;;;;;1047517;28;2101;-57
2022/10/06 02:51:16;;;;;;;;;;;;;;;;;;1047397;28;2295;-57
2022/10/06 02:51:47;;;;;;;;;;;;;;;;;;1050330;28;2519;-57
2022/10/06 02:52:18;;;;;;;;;;;;;;;;;;1039861;28;2268;-58
2022/10/06 02:52:49;;;;;;;;;;;;;;;;;;1041121;28;2222;-55
2022/10/06 02:53:19;;;;;;;;;;;;;;;;;;1038243;28;2484;-58
2022/10/06 02:53:50;;;;;;;;;;;;;;;;;;1043612;28;1651;-57
2022/10/06 02:54:20;;;;;;;;;;;;;;;;;;1043884;28;2590;-57
2022/10/06 02:54:52;;;;;;;;;;;;;;;;;;1046844;28;1971;-57
2022/10/06 02:55:25;;;;;;;;;;;;;;;;;;1046112;28;1566;-57
2022/10/06 02:55:57;;;;;;;;;;;;;;;;;;1043900;28;2163;-56
2022/10/06 02:56:27;;;;;;;;;;;;;;;;;;1046978;28;1995;-56
2022/10/06 02:56:58;;;;;;;;;;;;;;;;;;1048055;28;2009;-56
2022/10/06 02:57:29;;;;;;;;;;;;;;;;;;1048285;28;2123;-56
2022/10/06 02:58:02;;;;;;;;;;;;;;;;;;1048299;28;2133;-56
2022/10/06 02:58:33;;;;;;;;;;;;;;;;;;1044916;28;2025;-55
2022/10/06 02:59:03;;;;;;;;;;;;;;;;;;1043157;28;2428;-58
2022/10/06 02:59:34;;;;;;;;;;;;;;;;;;1042435;28;1869;-57
2022/10/06 03:00:06;;;;;;;;;;;;;;;;;;1046687;28;1914;-57
2022/10/06 03:00:36;;;;;;;;;;;;;;;;;;1051118;28;1665;-57
2022/10/06 03:01:27;;;;;;;;;;;;;;;;;;1049089;28;1701;-57
2022/10/06 03:01:58;;;;;;;;;;;;;;;;;;1046513;28;1938;-55
2022/10/06 03:02:29;;;;;;;;;;;;;;;;;;1046686;28;2084;-58
2022/10/06 03:03:00;;;;;;;;;;;;;;;;;;1043969;28;2448;-56
2022/10/06 03:03:31;;;;;;;;;;;;;;;;;;1043676;28;1651;-54
2022/10/06 03:04:01;;;;;;;;;;;;;;;;;;1049260;28;1825;-56
2022/10/06 03:04:31;;;;;;;;;;;;;;;;;;1049082;28;2505;-58
2022/10/06 03:05:02;;;;;;;;;;;;;;;;;;1048452;28;2154;-54
2022/10/06 03:05:35;;;;;;;;;;;;;;;;;;1047563;28;1698;-55
2022/10/06 03:06:20;;;;;;;;;;;;;;;;;;1048834;28;2445;-56
2022/10/06 03:06:57;;;;;;;;;;;;;;;;;;1049923;28;2103;-57
2022/10/06 03:07:28;;;;;;;;;;;;;;;;;;1049261;28;2247;-57
2022/10/06 03:07:58;;;;;;;;;;;;;;;;;;1047331;28;2468;-56
2022/10/06 03:08:30;;;;;;;;;;;;;;;;;;1049448;28;2029;-58
2022/10/06 03:09:06;;;;;;;;;;;;;;;;;;1043953;28;2134;-57
2022/10/06 03:09:36;;;;;;;;;;;;;;;;;;1043186;28;1867;-56
2022/10/06 03:10:07;;;;;;;;;;;;;;;;;;1045218;28;2105;-56
2022/10/06 03:10:37;;;;;;;;;;;;;;;;;;1052502;28;1628;-56
2022/10/06 03:11:10;;;;;;;;;;;;;;;;;;1053349;28;1889;-55
2022/10/06 03:11:41;;;;;;;;;;;;;;;;;;1047349;28;1707;-56
2022/10/06 03:12:11;;;;;;;;;;;;;;;;;;1045594;28;2599;-57
2022/10/06 03:12:42;;;;;;;;;;;;;;;;;;1043822;28;2109;-55
2022/10/06 03:13:12;;;;;;;;;;;;;;;;;;1042897;28;2055;-56
2022/10/06 03:13:42;;;;;;;;;;;;;;;;;;1048625;28;3021;-56
2022/10/06 03:14:13;;;;;;;;;;;;;;;;;;1042996;28;2233;-56
2022/10/06 03:14:44;;;;;;;;;;;;;;;;;;1042480;28;3051;-56
2022/10/06 03:15:14;;;;;;;;;;;;;;;;;;1039199;28;2366;-56
2022/10/06 03:15:44;;;;;;;;;;;;;;;;;;1040960;28;2087;-57
2022/10/06 03:16:18;;;;;;;;;;;;;;;;;;1046807;28;2345;-57
2022/10/06 03:16:53;;;;;;;;;;;;;;;;;;1048413;28;2728;-56
2022/10/06 03:17:23;;;;;;;;;;;;;;;;;;1047222;28;2001;-56
2022/10/06 03:17:54;;;;;;;;;;;;;;;;;;1047488;28;1963;-57
2022/10/06 03:18:25;;;;;;;;;;;;;;;;;;1046569;28;2293;-56
2022/10/06 03:18:57;;;;;;;;;;;;;;;;;;1040975;28;1692;-56
2022/10/06 03:19:31;;;;;;;;;;;;;;;;;;1042883;28;1865;-56
2022/10/06 03:20:03;;;;;;;;;;;;;;;;;;1041877;28;2060;-60
2022/10/06 03:20:34;;;;;;;;;;;;;;;;;;1044385;28;2330;-57
2022/10/06 03:21:04;;;;;;;;;;;;;;;;;;1050490;28;1566;-58
2022/10/06 03:21:36;;;;;;;;;;;;;;;;;;1051895;28;1665;-57
2022/10/06 03:22:20;;;;;;;;;;;;;;;;;;1051688;28;2531;-57
2022/10/06 03:22:57;;;;;;;;;;;;;;;;;;1048668;28;2147;-56
2022/10/06 03:23:28;;;;;;;;;;;;;;;;;;1047556;28;2449;-56
2022/10/06 03:23:59;;;;;;;;;;;;;;;;;;1049292;28;1766;-56
2022/10/06 03:24:29;;;;;;;;;;;;;;;;;;1044286;28;2497;-59
2022/10/06 03:25:00;;;;;;;;;;;;;;;;;;1042800;28;2627;-56
2022/10/06 03:25:31;;;;;;;;;;;;;;;;;;1041756;28;2119;-58
2022/10/06 03:26:01;;;;;;;;;;;;;;;;;;1045548;28;1977;-58
2022/10/06 03:26:33;;;;;;;;;;;;;;;;;;1044557;28;1658;-57
2022/10/06 03:27:03;;;;;;;;;;;;;;;;;;1052070;28;2028;-59
2022/10/06 03:27:33;;;;;;;;;;;;;;;;;;1054967;28;2099;-56
2022/10/06 03:28:04;;;;;;;;;;;;;;;;;;1049789;28;2546;-59
2022/10/06 03:28:35;;;;;;;;;;;;;;;;;;1046737;28;1965;-58
2022/10/06 03:29:06;;;;;;;;;;;;;;;;;;1040690;28;2012;-58
2022/10/06 03:29:37;;;;;;;;;;;;;;;;;;1037705;28;2202;-59
2022/10/06 03:30:08;;;;;;;;;;;;;;;;;;1039461;28;1965;-58
2022/10/06 03:30:39;;;;;;;;;;;;;;;;;;1037829;28;2555;-56
2022/10/06 03:31:09;;;;;;;;;;;;;;;;;;1039503;28;1680;-58
2022/10/06 03:31:40;;;;;;;;;;;;;;;;;;1047971;28;2174;-58
2022/10/06 03:32:11;;;;;;;;;;;;;;;;;;1043557;28;1702;-60
2022/10/06 03:32:41;;;;;;;;;;;;;;;;;;1046692;28;1688;-58
2022/10/06 03:33:11;;;;;;;;;;;;;;;;;;1046339;28;2020;-58
2022/10/06 03:33:42;;;;;;;;;;;;;;;;;;1046679;28;2062;-56
2022/10/06 03:34:13;;;;;;;;;;;;;;;;;;1047747;28;1738;-58
2022/10/06 03:34:46;;;;;;;;;;;;;;;;;;1052970;28;2542;-59
2022/10/06 03:35:17;;;;;;;;;;;;;;;;;;1052337;28;2305;-56
2022/10/06 03:35:56;;;;;;;;;;;;;;;;;;1051872;28;2521;-56
2022/10/06 03:36:28;;;;;;;;;;;;;;;;;;1050752;28;1795;-57
2022/10/06 03:36:59;;;;;;;;;;;;;;;;;;1048330;28;2570;-57
2022/10/06 03:37:30;;;;;;;;;;;;;;;;;;1048557;28;2487;-57
2022/10/06 03:38:00;;;;;;;;;;;;;;;;;;1050633;28;2071;-56
2022/10/06 03:38:31;;;;;;;;;;;;;;;;;;1055377;28;1882;-57
2022/10/06 03:39:02;;;;;;;;;;;;;;;;;;1051736;28;2099;-58
2022/10/06 03:39:33;;;;;;;;;;;;;;;;;;1054317;28;1845;-58
2022/10/06 03:40:03;;;;;;;;;;;;;;;;;;1055457;28;2102;-57
2022/10/06 03:40:34;;;;;;;;;;;;;;;;;;1048063;28;1735;-58